Alpena, MI

3:17 AM EDT on July 01, 2015 (GMT -0400)
APRSWXNET | | Change Station
CLOSE
Current Station
Personal Weather Station
Location: Alpena, MI
Elevation: 593 ft
Nearby Weather Stations

Elev 593 ft 45.05 °N, 83.45 °W | Updated 32 minutes ago

Overcast
Overcast
60 °F
Feels Like 60 °F
N
0
Wind Variable Wind from West
Gusts 3.0 mph

Today
High -- | Low -- °F
--% Chance of Precip.
Yesterday
High -- | Low -- °F
Precip. -- in
5:50 AM 9:24 PM
Waxing Gibbous, 99% visible
Pressure 29.82 in
Visibility 8.0 miles
Clouds Scattered Clouds 4500 ft
Overcast 7000 ft
Dew Point 59 °F
Humidity 95%
Rainfall in
Snow Depth Not available.
UV 0 out of 12
Pollen 3.40 out of 12
Air Quality Not available.
Flu Activity Not available.
METAR KAPN 010654Z AUTO 30003KT 8SM SCT045 OVC070 16/14 A2982 RMK AO2 SLP098 T01560144

More Conditions Fewer Conditions

Pressure 29.82 in
Visibility 8.0 miles
Clouds Scattered Clouds 4500 ft
Overcast 7000 ft
Dew Point 59 °F
Humidity 95%
Rainfall in
Snow Depth Not available.
UV 0 out of 12
Pollen 3.40 out of 12
Air Quality Not available.
Flu Activity Not available.
METAR KAPN 010654Z AUTO 30003KT 8SM SCT045 OVC070 16/14 A2982 RMK AO2 SLP098 T01560144

More Conditions Fewer Conditions

Nowcast | as of 3:00 am EDT on July 1, 2015

Patchy fog. Scattered showers. Patchy fog. Isolated showers. At 8 am...cloudy. Temperature 54. Northwest winds 8 mph.

×

10-Day Weather Forecast

×

Almanac

Astronomy

Jul. 01, 2015 Rise Set
Actual Time
Civil Twilight
Nautical Twilight
Astronomical Twilight
Moon
Length of Visible Light
Length of Day
Tomorrow will be .
, % of the Moon is Illuminated

Today's Extremes

State Highs State Lows

Community

WunderPhotos

Upload Photos

1,834,163 photos uploaded!

WunderBlogs® & News

Nearby

Air Quality

  Air Quality AQ Index Pollutant
Not available.

Snow Depth

Station Depth Elevation

Earthquake Activity

City Distance Mag. Time & Date
Minimum magnitude displayed is 2.5.

Coastal Water Temperatures

Place Temperature

Stations

Nearby Weather Stations

Station Location Temp. Windchill Dew Point Humidity Wind Precip. Elev Updated Type